Time;durP1;ratioP1;P1;durP2;ratioP2;P2;SDS_P1;SDS_P2;PMS_P1;PMS_P2;Temp;Humidity;BMP_temperature;BMP_pressure;BME280_temperature;BME280_humidity;BME280_pressure;Samples;Min_cycle;Max_cycle;Signal;HPM_P1;HPM_P2
2020/12/19 00:00:43;;;;;;;63.92;24.50;;;4.40;76.80;;;;;;5055448;28;20491;-73
2020/12/19 00:03:08;;;;;;;64.13;24.70;;;4.40;76.90;;;;;;5055354;28;20074;-74
2020/12/19 00:05:34;;;;;;;64.40;26.15;;;4.50;76.70;;;;;;5054672;28;20060;-74
2020/12/19 00:08:00;;;;;;;87.03;35.50;;;4.40;76.50;;;;;;5054946;28;20449;-73
2020/12/19 00:10:26;;;;;;;71.70;25.20;;;4.50;76.60;;;;;;5054850;28;20072;-74
2020/12/19 00:12:51;;;;;;;69.95;23.67;;;4.50;76.80;;;;;;5053656;28;20043;-73
2020/12/19 00:15:18;;;;;;;62.08;23.65;;;4.50;76.60;;;;;;5053600;28;20025;-75
2020/12/19 00:17:44;;;;;;;67.63;24.73;;;4.50;76.70;;;;;;5054802;28;20017;-73
2020/12/19 00:20:11;;;;;;;81.93;32.08;;;4.50;76.80;;;;;;5054805;28;20349;-73
2020/12/19 00:22:37;;;;;;;83.32;29.65;;;4.50;76.50;;;;;;5054427;28;20024;-72
2020/12/19 00:25:04;;;;;;;69.82;25.67;;;4.50;76.50;;;;;;5054844;28;20078;-73
2020/12/19 00:27:30;;;;;;;75.05;27.02;;;4.40;76.60;;;;;;5054361;28;20104;-73
2020/12/19 00:29:56;;;;;;;78.05;28.30;;;4.50;76.90;;;;;;5053234;28;20429;-73
2020/12/19 00:32:21;;;;;;;64.82;25.33;;;4.50;76.50;;;;;;5054233;28;20456;-74
2020/12/19 00:34:47;;;;;;;69.43;26.67;;;4.50;76.50;;;;;;5052859;28;20032;-73
2020/12/19 00:37:16;;;;;;;71.70;27.70;;;4.50;76.50;;;;;;5053480;28;20032;-72
2020/12/19 00:39:42;;;;;;;64.97;25.25;;;4.50;76.70;;;;;;5054680;28;20079;-72
2020/12/19 00:42:10;;;;;;;64.80;25.88;;;4.50;76.60;;;;;;5054251;28;20025;-72
2020/12/19 00:44:35;;;;;;;61.40;25.25;;;4.50;77.30;;;;;;5054294;28;20021;-73
2020/12/19 00:47:01;;;;;;;69.10;26.75;;;4.50;76.70;;;;;;5053879;28;20123;-74
2020/12/19 00:49:26;;;;;;;81.25;34.42;;;4.50;76.80;;;;;;5054170;28;20360;-73
2020/12/19 00:51:52;;;;;;;76.05;25.02;;;4.50;76.80;;;;;;5054148;28;20017;-73
2020/12/19 00:54:18;;;;;;;71.88;26.33;;;4.50;76.70;;;;;;5052691;28;20021;-72
2020/12/19 00:56:43;;;;;;;66.72;25.75;;;4.50;76.50;;;;;;5052670;28;20029;-72
2020/12/19 00:59:09;;;;;;;63.88;24.27;;;4.40;76.50;;;;;;5053864;28;20025;-73
2020/12/19 01:01:35;;;;;;;73.70;26.52;;;4.40;76.50;;;;;;5053926;28;20029;-72
2020/12/19 01:04:01;;;;;;;72.68;25.60;;;4.40;76.40;;;;;;5053981;28;20362;-74
2020/12/19 01:06:28;;;;;;;70.85;27.83;;;4.40;76.60;;;;;;5052826;28;20044;-72
2020/12/19 01:08:59;;;;;;;64.28;23.30;;;4.40;77.40;;;;;;5052191;28;20086;-74
2020/12/19 01:11:26;;;;;;;69.00;24.33;;;4.40;77.00;;;;;;5054248;28;20040;-73
2020/12/19 01:13:52;;;;;;;62.20;23.77;;;4.40;76.90;;;;;;5052337;28;20469;-75
2020/12/19 01:16:20;;;;;;;62.08;25.05;;;4.30;76.80;;;;;;5053664;28;20027;-74
2020/12/19 01:18:47;;;;;;;62.58;23.38;;;4.40;76.90;;;;;;5053646;28;20033;-72
2020/12/19 01:21:18;;;;;;;58.13;20.67;;;4.40;77.10;;;;;;5053232;28;20021;-73
2020/12/19 01:23:45;;;;;;;59.85;22.05;;;4.40;77.20;;;;;;5053703;28;20047;-72
2020/12/19 01:26:12;;;;;;;57.72;20.70;;;4.40;77.00;;;;;;5053641;28;20032;-73
2020/12/19 01:28:37;;;;;;;46.55;19.88;;;4.40;76.90;;;;;;5053145;28;20025;-72
2020/12/19 01:31:04;;;;;;;53.60;19.60;;;4.40;77.10;;;;;;5053596;28;20074;-73
2020/12/19 01:33:30;;;;;;;44.28;19.35;;;4.40;76.90;;;;;;5053549;28;20100;-72
2020/12/19 01:35:56;;;;;;;35.42;16.45;;;4.40;77.00;;;;;;5053035;28;20100;-72
2020/12/19 01:38:22;;;;;;;33.28;14.32;;;4.40;76.80;;;;;;5053233;28;20024;-74
2020/12/19 01:40:52;;;;;;;50.67;17.20;;;4.40;76.90;;;;;;5053588;28;20564;-73
2020/12/19 01:43:18;;;;;;;43.67;16.40;;;4.40;76.60;;;;;;5051158;28;20028;-72
2020/12/19 01:45:44;;;;;;;42.55;16.25;;;4.30;76.60;;;;;;5053188;28;20041;-73
2020/12/19 01:48:21;;;;;;;50.00;16.55;;;4.30;76.80;;;;;;5053584;28;20103;-72
2020/12/19 01:50:48;;;;;;;44.38;15.95;;;4.30;76.90;;;;;;5051968;28;20112;-72
2020/12/19 01:53:16;;;;;;;38.65;16.52;;;4.30;76.90;;;;;;5053298;28;20024;-72
2020/12/19 01:55:43;;;;;;;40.45;16.27;;;4.30;77.00;;;;;;5053307;28;20033;-73
2020/12/19 01:58:09;;;;;;;40.67;15.18;;;4.30;77.10;;;;;;5052874;28;20055;-73
2020/12/19 02:00:41;;;;;;;37.40;14.43;;;4.30;77.10;;;;;;5052845;28;20052;-73
2020/12/19 02:03:08;;;;;;;37.35;15.55;;;4.30;77.30;;;;;;5052775;28;20096;-72
2020/12/19 02:05:36;;;;;;;35.20;16.40;;;4.40;77.40;;;;;;5053335;28;20032;-73
2020/12/19 02:08:03;;;;;;;41.78;14.85;;;4.40;77.40;;;;;;5051909;28;20452;-73
2020/12/19 02:10:32;;;;;;;34.97;13.85;;;4.40;77.20;;;;;;5053460;28;20548;-73
2020/12/19 02:13:05;;;;;;;31.17;14.23;;;4.40;77.20;;;;;;5053088;28;20025;-73
2020/12/19 02:15:45;;;;;;;41.40;15.60;;;4.50;77.40;;;;;;5053084;28;20055;-72
2020/12/19 02:18:11;;;;;;;37.10;15.32;;;4.50;77.30;;;;;;5055368;28;20411;-73
2020/12/19 02:20:37;;;;;;;37.88;15.20;;;4.60;77.20;;;;;;5057220;28;20043;-73
2020/12/19 02:23:05;;;;;;;35.80;14.77;;;4.60;77.00;;;;;;5057030;28;20024;-72
2020/12/19 02:25:38;;;;;;;32.53;13.52;;;4.60;77.10;;;;;;5056593;28;20033;-73
2020/12/19 02:28:09;;;;;;;32.75;13.13;;;4.60;77.00;;;;;;5057162;28;20067;-73
2020/12/19 02:30:37;;;;;;;32.97;14.00;;;4.60;77.30;;;;;;5057122;28;20035;-73
2020/12/19 02:33:03;;;;;;;34.72;14.90;;;4.60;77.30;;;;;;5057390;28;20017;-73
2020/12/19 02:35:29;;;;;;;32.63;14.13;;;4.70;77.30;;;;;;5057005;28;20056;-73
2020/12/19 02:37:55;;;;;;;34.60;15.07;;;4.80;77.50;;;;;;5056946;28;20060;-72
2020/12/19 02:40:21;;;;;;;32.65;14.80;;;4.80;77.40;;;;;;5056718;28;20017;-72
2020/12/19 02:42:47;;;;;;;32.78;13.93;;;4.90;77.10;;;;;;5055332;28;20456;-73
2020/12/19 02:45:14;;;;;;;35.70;14.35;;;4.90;76.80;;;;;;5056503;28;20017;-73
2020/12/19 02:47:39;;;;;;;30.13;13.35;;;4.90;76.60;;;;;;5056778;28;20528;-72
2020/12/19 02:50:06;;;;;;;32.38;14.20;;;4.90;76.40;;;;;;5056427;28;20092;-73
2020/12/19 02:52:31;;;;;;;30.85;13.20;;;4.90;76.40;;;;;;5056460;28;20017;-73
2020/12/19 02:54:57;;;;;;;30.40;13.80;;;4.90;76.20;;;;;;5056349;28;20024;-73
2020/12/19 02:57:23;;;;;;;29.92;13.73;;;4.90;76.40;;;;;;5055224;28;20027;-72
2020/12/19 02:59:48;;;;;;;34.63;14.43;;;4.90;76.30;;;;;;5056259;28;20021;-73
2020/12/19 03:02:14;;;;;;;33.90;14.18;;;4.90;76.40;;;;;;5056542;28;20031;-72
2020/12/19 03:04:40;;;;;;;30.95;13.50;;;4.90;77.30;;;;;;5056269;28;20036;-73
2020/12/19 03:07:05;;;;;;;28.48;13.98;;;4.90;76.60;;;;;;5054568;28;20057;-73
2020/12/19 03:09:31;;;;;;;26.75;13.38;;;4.90;76.40;;;;;;5056361;28;20041;-72
2020/12/19 03:11:57;;;;;;;33.63;14.73;;;5.00;76.30;;;;;;5055798;28;20017;-72
2020/12/19 03:14:22;;;;;;;36.30;17.02;;;5.00;76.10;;;;;;5054975;28;20024;-72
2020/12/19 03:16:48;;;;;;;34.28;17.30;;;5.00;76.20;;;;;;5056245;28;20029;-73
2020/12/19 03:19:14;;;;;;;40.03;19.92;;;5.00;76.10;;;;;;5055932;28;20064;-72
2020/12/19 03:21:40;;;;;;;44.70;20.67;;;5.00;76.30;;;;;;5056445;28;20514;-73
2020/12/19 03:24:05;;;;;;;49.25;22.42;;;5.00;76.10;;;;;;5055452;28;20074;-72
2020/12/19 03:26:31;;;;;;;45.80;21.77;;;5.00;76.10;;;;;;5055418;28;20040;-73
2020/12/19 03:28:57;;;;;;;42.17;21.23;;;5.00;76.10;;;;;;5054402;28;20059;-73
2020/12/19 03:31:23;;;;;;;48.28;21.77;;;5.00;76.10;;;;;;5054678;28;20072;-73
2020/12/19 03:33:49;;;;;;;47.13;22.52;;;5.00;76.00;;;;;;5055681;28;20024;-72
2020/12/19 03:36:15;;;;;;;47.00;20.50;;;5.00;75.90;;;;;;5055489;28;20158;-73
2020/12/19 03:38:41;;;;;;;42.92;20.35;;;5.10;75.70;;;;;;5054578;28;20025;-73
2020/12/19 03:41:06;;;;;;;37.60;18.30;;;5.00;75.70;;;;;;5055581;28;20021;-73
2020/12/19 03:43:32;;;;;;;43.92;18.30;;;5.00;75.80;;;;;;5055280;28;20019;-72
2020/12/19 03:45:58;;;;;;;39.30;18.00;;;5.00;75.90;;;;;;5055364;28;20087;-73
2020/12/19 03:48:24;;;;;;;37.38;18.45;;;5.00;76.00;;;;;;5055919;28;20028;-73
2020/12/19 03:50:50;;;;;;;37.60;17.15;;;5.10;76.10;;;;;;5055379;28;20513;-73
2020/12/19 03:53:15;;;;;;;36.20;17.45;;;5.10;76.10;;;;;;5055720;28;20090;-73
2020/12/19 03:55:41;;;;;;;46.85;18.48;;;5.10;75.80;;;;;;5055222;28;20025;-72
2020/12/19 03:58:07;;;;;;;34.80;16.05;;;5.10;76.40;;;;;;5055126;28;20028;-71
2020/12/19 04:00:33;;;;;;;40.33;16.88;;;5.10;75.90;;;;;;5055713;28;20016;-73
2020/12/19 04:02:58;;;;;;;37.17;16.17;;;5.10;75.70;;;;;;5053805;28;20102;-72
2020/12/19 04:05:24;;;;;;;35.17;16.10;;;5.10;75.80;;;;;;5055222;28;20029;-72
2020/12/19 04:07:50;;;;;;;33.95;14.60;;;5.10;75.90;;;;;;5055112;28;20025;-73
2020/12/19 04:10:16;;;;;;;38.63;16.58;;;5.10;75.80;;;;;;5055394;28;20376;-74
2020/12/19 04:12:41;;;;;;;34.67;17.17;;;5.10;75.90;;;;;;5054914;28;20021;-72
2020/12/19 04:15:09;;;;;;;35.05;16.48;;;5.10;76.10;;;;;;5055073;28;20032;-73
2020/12/19 04:17:35;;;;;;;40.70;17.33;;;5.10;76.00;;;;;;5053547;28;20083;-73
2020/12/19 04:20:02;;;;;;;37.10;16.25;;;5.10;76.00;;;;;;5055012;28;20457;-74
2020/12/19 04:22:28;;;;;;;35.78;16.13;;;5.20;76.00;;;;;;5054349;28;20449;-73
2020/12/19 04:24:54;;;;;;;36.65;16.00;;;5.20;75.90;;;;;;5054095;28;20033;-73
2020/12/19 04:27:19;;;;;;;31.10;14.80;;;5.20;75.80;;;;;;5054274;28;20099;-73
2020/12/19 04:29:45;;;;;;;36.33;16.55;;;5.20;75.90;;;;;;5054289;28;20411;-73
2020/12/19 04:32:11;;;;;;;37.75;17.50;;;5.20;75.70;;;;;;5054399;28;20392;-74
2020/12/19 04:34:37;;;;;;;41.65;17.75;;;5.30;75.90;;;;;;5054797;28;20444;-73
2020/12/19 04:37:02;;;;;;;41.40;18.02;;;5.30;75.70;;;;;;5054420;28;20457;-75
2020/12/19 04:39:28;;;;;;;38.15;16.35;;;5.30;75.90;;;;;;5055180;28;20021;-73
2020/12/19 04:41:54;;;;;;;34.00;16.83;;;5.30;75.90;;;;;;5054561;28;20516;-73
2020/12/19 04:44:20;;;;;;;33.15;15.80;;;5.30;75.80;;;;;;5054198;28;20059;-72
2020/12/19 04:46:45;;;;;;;36.95;17.80;;;5.40;75.70;;;;;;5054175;28;20029;-72
2020/12/19 04:49:11;;;;;;;36.50;17.42;;;5.40;75.70;;;;;;5054209;28;20056;-72
2020/12/19 04:51:37;;;;;;;38.20;17.58;;;5.50;75.80;;;;;;5052679;28;20025;-73
2020/12/19 04:54:04;;;;;;;36.28;16.67;;;5.50;75.90;;;;;;5052796;28;20017;-72
2020/12/19 04:56:30;;;;;;;32.35;15.70;;;5.50;75.80;;;;;;5052992;28;20119;-73
2020/12/19 04:58:58;;;;;;;36.83;16.55;;;5.60;75.70;;;;;;5054042;28;20092;-74
2020/12/19 05:01:23;;;;;;;29.67;14.60;;;5.60;75.30;;;;;;5054142;28;20017;-73
2020/12/19 05:03:53;;;;;;;30.70;14.30;;;5.50;75.00;;;;;;5053843;28;20032;-72
2020/12/19 05:06:22;;;;;;;28.15;14.02;;;5.50;75.00;;;;;;5053824;28;20115;-73
2020/12/19 05:08:48;;;;;;;29.85;13.32;;;5.50;75.10;;;;;;5052553;28;20047;-73
2020/12/19 05:11:14;;;;;;;30.75;15.07;;;5.50;75.20;;;;;;5054662;28;20460;-73
2020/12/19 05:13:41;;;;;;;33.72;14.50;;;5.50;75.30;;;;;;5052486;28;20368;-72
2020/12/19 05:16:11;;;;;;;33.63;15.70;;;5.60;75.20;;;;;;5053890;28;20029;-77
2020/12/19 05:18:39;;;;;;;31.90;14.40;;;5.60;75.00;;;;;;5054098;28;20025;-73
2020/12/19 05:21:06;;;;;;;33.10;14.82;;;5.60;74.90;;;;;;5053578;28;20036;-73
2020/12/19 05:23:37;;;;;;;32.75;16.05;;;5.60;74.80;;;;;;5053616;28;20028;-73
2020/12/19 05:26:12;;;;;;;34.70;15.27;;;5.60;74.90;;;;;;5053428;28;20029;-73
2020/12/19 05:28:41;;;;;;;35.72;15.68;;;5.60;74.90;;;;;;5053779;28;20364;-73
2020/12/19 05:31:07;;;;;;;33.67;15.88;;;5.60;75.40;;;;;;5052906;28;20091;-72
2020/12/19 05:33:39;;;;;;;30.98;14.50;;;5.70;74.90;;;;;;5053641;28;20104;-73
2020/12/19 05:36:06;;;;;;;41.88;15.60;;;5.70;74.90;;;;;;5052145;28;20036;-73
2020/12/19 05:38:38;;;;;;;33.92;15.52;;;5.70;74.80;;;;;;5053374;28;20032;-73
2020/12/19 05:41:04;;;;;;;32.60;14.88;;;5.70;74.70;;;;;;5052656;28;20028;-72
2020/12/19 05:43:29;;;;;;;33.38;14.68;;;5.70;74.80;;;;;;5053389;28;20032;-73
2020/12/19 05:45:56;;;;;;;31.45;13.80;;;5.70;74.70;;;;;;5053180;28;20037;-73
2020/12/19 05:48:22;;;;;;;33.28;15.23;;;5.70;74.60;;;;;;5053351;28;20094;-73
2020/12/19 05:50:48;;;;;;;31.88;14.13;;;5.70;74.50;;;;;;5053240;28;20017;-73
2020/12/19 05:53:14;;;;;;;32.67;14.63;;;5.70;74.60;;;;;;5058307;28;20460;-74
2020/12/19 05:55:40;;;;;;;36.25;15.80;;;5.80;74.60;;;;;;5060785;28;20036;-73
2020/12/19 05:58:06;;;;;;;32.50;15.23;;;5.80;74.60;;;;;;5059933;28;20017;-73
2020/12/19 06:00:33;;;;;;;35.67;14.48;;;5.80;74.10;;;;;;5060144;28;20039;-74
2020/12/19 06:03:02;;;;;;;32.85;14.20;;;5.70;74.10;;;;;;5058547;28;20021;-73
2020/12/19 06:05:30;;;;;;;32.63;14.38;;;5.80;74.20;;;;;;5059741;28;20017;-73
2020/12/19 06:07:57;;;;;;;34.75;14.77;;;5.80;74.20;;;;;;5059791;28;20082;-74
2020/12/19 06:10:23;;;;;;;31.00;14.63;;;5.80;74.20;;;;;;5060226;28;20045;-73
2020/12/19 06:12:58;;;;;;;36.20;15.98;;;5.80;74.20;;;;;;5059476;28;20454;-73
2020/12/19 06:15:55;;;;;;;36.10;16.35;;;5.80;74.50;;;;;;5059300;28;20340;-74
2020/12/19 06:18:48;;;;;;;36.90;16.13;;;5.90;74.50;;;;;;5060370;28;20025;-73
2020/12/19 06:21:14;;;;;;;38.75;15.98;;;5.90;74.20;;;;;;5059949;28;20021;-74
2020/12/19 06:23:42;;;;;;;35.35;16.05;;;5.90;74.10;;;;;;5059459;28;20024;-73
2020/12/19 06:26:09;;;;;;;38.75;16.02;;;6.00;74.20;;;;;;5059597;28;20032;-73
2020/12/19 06:28:43;;;;;;;36.60;14.90;;;6.00;74.10;;;;;;5059365;28;20033;-74
2020/12/19 06:31:22;;;;;;;41.40;16.58;;;6.00;74.10;;;;;;5058642;28;20134;-73
2020/12/19 06:33:50;;;;;;;38.55;15.95;;;6.10;74.00;;;;;;5060120;28;20032;-72
2020/12/19 06:36:28;;;;;;;33.17;14.52;;;6.10;74.00;;;;;;5059518;28;20033;-73
2020/12/19 06:38:57;;;;;;;37.28;15.90;;;6.10;74.00;;;;;;5060007;28;20024;-74
2020/12/19 06:41:41;;;;;;;41.67;16.67;;;6.20;74.00;;;;;;5059713;28;20326;-73
2020/12/19 06:44:19;;;;;;;34.88;15.05;;;6.20;73.80;;;;;;5059448;28;20465;-74
2020/12/19 06:46:45;;;;;;;38.95;16.38;;;6.30;73.80;;;;;;5058273;28;20452;-74
2020/12/19 06:49:23;;;;;;;40.65;17.35;;;6.30;73.60;;;;;;5059162;28;20350;-73
2020/12/19 06:52:08;;;;;;;42.35;17.23;;;6.30;73.60;;;;;;5059347;28;20017;-74
2020/12/19 06:54:39;;;;;;;42.35;18.10;;;6.40;73.60;;;;;;5059563;28;20029;-73
2020/12/19 06:57:20;;;;;;;45.97;17.85;;;6.40;73.30;;;;;;5059598;28;20060;-73
2020/12/19 06:59:46;;;;;;;45.67;17.83;;;6.40;73.20;;;;;;5059652;28;20025;-74
2020/12/19 07:02:20;;;;;;;43.08;17.95;;;6.40;73.10;;;;;;5058085;28;20043;-72
2020/12/19 07:04:47;;;;;;;46.28;17.80;;;6.50;73.40;;;;;;5054330;28;20364;-73
2020/12/19 07:07:24;;;;;;;51.03;19.02;;;6.50;73.40;;;;;;5056084;28;20062;-73
2020/12/19 07:10:01;;;;;;;44.75;17.73;;;6.60;73.40;;;;;;5056506;28;20049;-74
2020/12/19 07:12:35;;;;;;;48.15;18.52;;;6.60;73.20;;;;;;5055638;28;20450;-75
2020/12/19 07:15:05;;;;;;;49.00;19.17;;;6.70;73.10;;;;;;5055125;28;20021;-74
2020/12/19 07:17:46;;;;;;;46.65;18.77;;;6.70;73.00;;;;;;5054641;28;20385;-75
2020/12/19 07:20:13;;;;;;;49.75;19.08;;;6.80;72.80;;;;;;5056051;28;20025;-74
2020/12/19 07:22:39;;;;;;;52.60;19.08;;;6.80;72.70;;;;;;5054427;28;20492;-72
2020/12/19 07:25:05;;;;;;;50.17;18.55;;;6.80;72.50;;;;;;5056238;28;20128;-74
2020/12/19 07:27:31;;;;;;;50.17;18.73;;;6.80;72.50;;;;;;5054605;28;20037;-74
2020/12/19 07:29:58;;;;;;;48.83;19.42;;;6.80;72.60;;;;;;5055463;28;20053;-73
2020/12/19 07:32:24;;;;;;;50.03;21.00;;;6.90;72.50;;;;;;5056245;28;20029;-74
2020/12/19 07:34:55;;;;;;;49.92;20.25;;;6.90;72.50;;;;;;5054388;28;20023;-73
2020/12/19 07:37:21;;;;;;;57.97;20.30;;;7.00;72.40;;;;;;5055710;28;20095;-72
2020/12/19 07:39:48;;;;;;;54.17;20.88;;;7.00;72.30;;;;;;5055171;28;20021;-74
2020/12/19 07:42:14;;;;;;;57.10;20.65;;;7.00;72.00;;;;;;5055023;28;20112;-74
2020/12/19 07:44:40;;;;;;;49.97;19.15;;;7.10;72.00;;;;;;5055352;28;20017;-74
2020/12/19 07:47:13;;;;;;;51.63;19.63;;;7.10;71.80;;;;;;5055276;28;20452;-74
2020/12/19 07:49:41;;;;;;;53.10;17.88;;;7.00;71.60;;;;;;5055148;28;20017;-74
2020/12/19 07:52:22;;;;;;;51.95;20.77;;;7.00;71.40;;;;;;5054912;28;20028;-73
2020/12/19 07:55:03;;;;;;;56.78;19.75;;;7.00;71.40;;;;;;5055609;28;20025;-74
2020/12/19 07:57:33;;;;;;;52.15;19.55;;;7.00;71.50;;;;;;5055352;28;20029;-74
2020/12/19 08:00:00;;;;;;;53.45;19.55;;;6.90;71.40;;;;;;5053955;28;20388;-73
2020/12/19 08:02:26;;;;;;;59.70;19.92;;;6.90;71.60;;;;;;5055181;28;20025;-74
2020/12/19 08:04:52;;;;;;;56.67;21.23;;;6.90;72.20;;;;;;5055397;28;20479;-74
2020/12/19 08:07:20;;;;;;;55.47;20.52;;;6.90;71.60;;;;;;5054992;28;20025;-75
2020/12/19 08:09:46;;;;;;;42.60;18.85;;;6.90;71.50;;;;;;5054798;28;20099;-74
2020/12/19 08:12:12;;;;;;;54.67;20.02;;;6.90;71.60;;;;;;5055323;28;20032;-75
2020/12/19 08:14:40;;;;;;;54.38;20.70;;;6.90;71.60;;;;;;5054353;28;20096;-73
2020/12/19 08:17:15;;;;;;;51.97;19.70;;;6.90;71.50;;;;;;5053484;28;20075;-74
2020/12/19 08:19:44;;;;;;;50.78;19.15;;;6.90;71.60;;;;;;5054769;28;20021;-75
2020/12/19 08:22:11;;;;;;;55.20;20.10;;;6.90;71.50;;;;;;5053428;28;20021;-74
2020/12/19 08:24:37;;;;;;;47.95;19.50;;;6.90;71.50;;;;;;5054398;28;20025;-73
2020/12/19 08:27:35;;;;;;;53.47;20.00;;;6.90;71.40;;;;;;5054515;28;20033;-74
2020/12/19 08:30:09;;;;;;;51.83;20.13;;;6.90;71.40;;;;;;5054885;28;20373;-74
2020/12/19 08:32:38;;;;;;;54.75;20.08;;;6.90;71.40;;;;;;5055233;28;20415;-75
2020/12/19 08:35:04;;;;;;;51.40;20.33;;;7.00;71.40;;;;;;5054968;28;20029;-74
2020/12/19 08:37:31;;;;;;;53.05;20.13;;;6.90;71.30;;;;;;5054847;28;20025;-73
2020/12/19 08:40:12;;;;;;;54.88;19.27;;;6.90;71.20;;;;;;5054464;28;20029;-77
2020/12/19 08:42:38;;;;;;;46.05;17.98;;;6.90;71.30;;;;;;5054524;28;20025;-76
2020/12/19 08:45:35;;;;;;;57.63;22.52;;;6.90;71.30;;;;;;5054284;28;20083;-75
2020/12/19 08:48:04;;;;;;;49.97;19.73;;;6.90;71.30;;;;;;5054337;28;20037;-76
2020/12/19 08:50:51;;;;;;;48.67;20.10;;;7.00;71.50;;;;;;5054196;28;20017;-74
2020/12/19 08:53:18;;;;;;;49.10;18.67;;;7.00;71.40;;;;;;5052356;28;20473;-76
2020/12/19 08:55:45;;;;;;;45.78;19.48;;;7.00;71.30;;;;;;5054443;28;20085;-75
2020/12/19 08:58:23;;;;;;;38.28;17.33;;;7.10;71.30;;;;;;5053934;28;20028;-75
2020/12/19 09:00:50;;;;;;;44.83;19.67;;;7.10;71.10;;;;;;5053787;28;20069;-75
2020/12/19 09:03:25;;;;;;;49.80;21.45;;;7.10;70.90;;;;;;5053932;28;20021;-76
2020/12/19 09:05:59;;;;;;;40.58;17.98;;;7.10;70.90;;;;;;5053819;28;20112;-75
2020/12/19 09:08:31;;;;;;;39.67;16.95;;;7.10;70.80;;;;;;5053938;28;20342;-76
2020/12/19 09:10:56;;;;;;;41.75;17.48;;;7.20;70.80;;;;;;5054291;28;20407;-77
2020/12/19 09:13:22;;;;;;;41.10;18.30;;;7.20;70.80;;;;;;5053714;28;20020;-74
2020/12/19 09:15:51;;;;;;;41.20;18.30;;;7.20;70.70;;;;;;5053556;28;20075;-76
2020/12/19 09:18:23;;;;;;;69.03;29.27;;;7.20;70.50;;;;;;5053679;28;20146;-77
2020/12/19 09:20:54;;;;;;;45.17;20.00;;;7.20;70.30;;;;;;5054157;28;20021;-74
2020/12/19 09:23:20;;;;;;;42.45;17.77;;;7.20;70.40;;;;;;5053482;28;20021;-80
2020/12/19 09:25:46;;;;;;;39.70;16.92;;;7.20;70.40;;;;;;5053467;28;20120;-76
2020/12/19 09:28:13;;;;;;;34.78;16.48;;;7.30;70.40;;;;;;5052686;28;20048;-76
2020/12/19 09:30:39;;;;;;;35.38;16.10;;;7.30;70.30;;;;;;5052175;28;20108;-76
2020/12/19 09:33:05;;;;;;;37.30;17.58;;;7.30;70.20;;;;;;5054079;28;20016;-75
2020/12/19 09:35:31;;;;;;;44.45;18.35;;;7.20;69.90;;;;;;5053275;28;20025;-74
2020/12/19 09:37:58;;;;;;;43.72;20.20;;;7.30;70.00;;;;;;5053594;28;20398;-74
2020/12/19 09:40:23;;;;;;;43.88;19.42;;;7.20;69.90;;;;;;5053256;28;20143;-75
2020/12/19 09:42:49;;;;;;;40.78;17.52;;;7.20;69.90;;;;;;5053340;28;20356;-74
2020/12/19 09:45:15;;;;;;;39.40;18.90;;;7.20;69.90;;;;;;5053442;28;20021;-77
2020/12/19 09:47:41;;;;;;;36.70;17.40;;;7.20;70.10;;;;;;5053045;28;20033;-74
2020/12/19 09:50:09;;;;;;;38.08;17.10;;;7.20;70.00;;;;;;5053351;28;20102;-75
2020/12/19 09:52:35;;;;;;;42.22;20.13;;;7.20;69.90;;;;;;5052301;28;20021;-75
2020/12/19 09:55:02;;;;;;;43.95;19.75;;;7.20;69.80;;;;;;5053307;28;20035;-75
2020/12/19 09:57:28;;;;;;;40.38;18.63;;;7.20;70.00;;;;;;5051424;28;20027;-75
2020/12/19 09:59:54;;;;;;;47.47;21.48;;;7.30;70.10;;;;;;5051665;28;20112;-73
2020/12/19 10:02:19;;;;;;;40.90;18.98;;;7.20;70.00;;;;;;5052922;28;20029;-74
2020/12/19 10:04:45;;;;;;;47.47;20.25;;;7.30;70.00;;;;;;5052655;28;20017;-73
2020/12/19 10:07:11;;;;;;;52.13;20.52;;;7.30;69.90;;;;;;5052346;28;20404;-73
2020/12/19 10:09:36;;;;;;;41.05;18.45;;;7.30;70.10;;;;;;5053347;28;20403;-73
2020/12/19 10:12:02;;;;;;;39.42;18.20;;;7.30;70.10;;;;;;5053354;28;20096;-75
2020/12/19 10:14:27;;;;;;;43.67;17.17;;;7.40;69.80;;;;;;5052717;28;20028;-74
2020/12/19 10:16:54;;;;;;;42.33;19.95;;;7.40;69.90;;;;;;5051638;28;20473;-73
2020/12/19 10:19:20;;;;;;;41.25;18.63;;;7.40;69.70;;;;;;5052991;28;20120;-74
2020/12/19 10:21:46;;;;;;;42.13;18.90;;;7.40;69.80;;;;;;5052660;28;20057;-75
2020/12/19 10:24:11;;;;;;;35.55;17.33;;;7.40;69.70;;;;;;5052967;28;20036;-74
2020/12/19 10:26:37;;;;;;;41.08;17.55;;;7.40;69.60;;;;;;5052728;28;20091;-74
2020/12/19 10:29:03;;;;;;;38.28;16.65;;;7.40;69.50;;;;;;5052603;28;20059;-74
2020/12/19 10:31:29;;;;;;;39.15;17.25;;;7.40;69.50;;;;;;5052907;28;20029;-75
2020/12/19 10:33:54;;;;;;;38.38;17.75;;;7.40;69.40;;;;;;5052698;28;20029;-75
2020/12/19 10:36:20;;;;;;;34.53;16.15;;;7.40;69.40;;;;;;5052028;28;20469;-75
2020/12/19 10:38:47;;;;;;;37.60;17.15;;;7.40;69.40;;;;;;5053501;28;20025;-75
2020/12/19 10:41:15;;;;;;;39.45;18.75;;;7.40;69.50;;;;;;5056561;28;20055;-74
2020/12/19 10:43:42;;;;;;;44.55;21.05;;;7.50;69.40;;;;;;5055630;28;20025;-73
2020/12/19 10:46:09;;;;;;;40.92;19.77;;;7.50;69.50;;;;;;5057141;28;20403;-73
2020/12/19 10:48:37;;;;;;;34.25;17.48;;;7.50;69.50;;;;;;5055229;28;20021;-73
2020/12/19 10:51:03;;;;;;;34.13;17.23;;;7.50;69.30;;;;;;5056529;28;20150;-73
2020/12/19 10:53:29;;;;;;;35.95;17.67;;;7.60;69.30;;;;;;5056039;28;20021;-74
2020/12/19 10:55:55;;;;;;;34.15;17.73;;;7.60;68.90;;;;;;5056125;28;20103;-75
2020/12/19 10:58:20;;;;;;;32.50;16.83;;;7.60;68.90;;;;;;5056268;28;20017;-75
2020/12/19 11:00:46;;;;;;;33.42;16.23;;;7.50;68.80;;;;;;5056106;28;20090;-76
2020/12/19 11:03:12;;;;;;;33.80;17.00;;;7.50;68.70;;;;;;5055566;28;20021;-75
2020/12/19 11:05:41;;;;;;;40.17;17.98;;;7.50;68.70;;;;;;5055886;28;20040;-75
2020/12/19 11:08:07;;;;;;;36.55;17.77;;;7.40;68.80;;;;;;5054634;28;20052;-74
2020/12/19 11:10:35;;;;;;;38.95;18.13;;;7.40;69.00;;;;;;5054730;28;20159;-74
2020/12/19 11:13:03;;;;;;;31.70;16.75;;;7.40;69.00;;;;;;5053815;28;20113;-74
2020/12/19 11:15:32;;;;;;;32.35;17.23;;;7.40;68.90;;;;;;5053117;28;20052;-74
2020/12/19 11:17:59;;;;;;;36.05;17.05;;;7.40;68.80;;;;;;5054334;28;20048;-73
2020/12/19 11:20:24;;;;;;;33.47;17.45;;;7.40;68.80;;;;;;5054515;28;20029;-74
2020/12/19 11:22:50;;;;;;;31.52;17.02;;;7.30;68.80;;;;;;5054485;28;20479;-76
2020/12/19 11:25:16;;;;;;;34.88;17.52;;;7.30;68.80;;;;;;5055558;28;20021;-75
2020/12/19 11:27:43;;;;;;;41.00;18.88;;;7.20;68.90;;;;;;5054135;28;20085;-76
2020/12/19 11:30:09;;;;;;;38.05;18.58;;;7.20;69.20;;;;;;5056189;28;20028;-74
2020/12/19 11:32:35;;;;;;;36.03;17.40;;;7.20;69.40;;;;;;5055436;28;20463;-73
2020/12/19 11:35:01;;;;;;;37.33;17.90;;;7.10;69.40;;;;;;5053893;28;20119;-74
2020/12/19 11:37:26;;;;;;;33.85;17.42;;;7.20;69.60;;;;;;5054327;28;20021;-75
2020/12/19 11:39:53;;;;;;;35.83;16.63;;;7.20;69.60;;;;;;5055422;28;20024;-73
2020/12/19 11:42:20;;;;;;;35.72;17.33;;;7.20;69.60;;;;;;5053003;28;20328;-75
2020/12/19 11:44:46;;;;;;;35.22;16.40;;;7.20;69.60;;;;;;5055554;28;20025;-73
2020/12/19 11:47:13;;;;;;;41.40;18.45;;;7.20;69.50;;;;;;5055755;28;20025;-73
2020/12/19 11:49:39;;;;;;;36.75;16.80;;;7.20;69.60;;;;;;5053779;28;20457;-74
2020/12/19 11:52:09;;;;;;;40.67;18.45;;;7.20;69.50;;;;;;5055837;28;20147;-74
2020/12/19 11:54:35;;;;;;;34.58;18.05;;;7.10;69.40;;;;;;5053468;28;20044;-74
2020/12/19 11:57:04;;;;;;;37.58;18.05;;;7.20;69.50;;;;;;5055947;28;20151;-74
2020/12/19 11:59:30;;;;;;;34.05;17.50;;;7.10;69.60;;;;;;5054955;28;20082;-75
2020/12/19 12:02:00;;;;;;;36.47;17.75;;;7.10;69.70;;;;;;5054455;28;20017;-73
2020/12/19 12:04:26;;;;;;;36.45;17.40;;;7.10;69.70;;;;;;5054435;28;20024;-74
2020/12/19 12:06:52;;;;;;;41.40;19.33;;;7.10;69.70;;;;;;5054986;28;20036;-74
2020/12/19 12:09:18;;;;;;;40.15;17.70;;;7.20;69.80;;;;;;5054080;28;20469;-73
2020/12/19 12:11:44;;;;;;;35.70;17.48;;;7.20;69.90;;;;;;5052638;28;20025;-77
2020/12/19 12:14:09;;;;;;;34.72;16.92;;;7.20;69.80;;;;;;5050759;28;20124;-77
2020/12/19 12:16:35;;;;;;;33.58;16.52;;;7.20;69.70;;;;;;5053893;28;20032;-73
2020/12/19 12:19:02;;;;;;;34.78;18.17;;;7.20;69.70;;;;;;5054499;28;20021;-74
2020/12/19 12:21:38;;;;;;;34.60;15.93;;;7.20;69.60;;;;;;5051249;28;20050;-78
2020/12/19 12:24:05;;;;;;;38.38;18.52;;;7.10;69.70;;;;;;5052859;28;20051;-71
2020/12/19 12:26:32;;;;;;;37.72;18.17;;;7.20;69.80;;;;;;5053709;28;20029;-75
2020/12/19 12:29:00;;;;;;;40.10;18.70;;;7.20;69.90;;;;;;5052309;28;20341;-75
2020/12/19 12:31:29;;;;;;;38.00;16.95;;;7.10;69.70;;;;;;5053552;28;20514;-73
2020/12/19 12:33:58;;;;;;;38.15;18.30;;;7.10;69.90;;;;;;5055260;28;20017;-74
2020/12/19 12:36:25;;;;;;;38.70;17.38;;;7.10;70.10;;;;;;5052376;28;20025;-74
2020/12/19 12:38:51;;;;;;;36.72;17.63;;;7.20;70.00;;;;;;5050051;28;20020;-74